Albers, Illinois
Current Conditions -  °F | °C
As of 1:58 AM on Friday 28 Nov 2014 (Local Time) from KBLV Reporting Station
Overcast Overcast  
Wind Chill: 17°   Ceiling: 14000
Heat Index: 23°   Visibility: 10mi
Dew Point: 20°   Wind: 5mph
Humidity: 87%   Direction: 90°E
Pressure: 30.41"   Gusts: NA
Location:  38.54°N, 89.61°W
Report Text: KBLV 280758Z AUTO 09004KT 10SM OVC140 M05/M07 A3041 RMK AO2 SLP307 T10491067
Loading
Personal Weather Stations






























Interactive Weather Map New forecast layout! Learn more

10-Day Weather Forecast

Advertisements
Track Severe Weather on mobile